Babelthuap Airport Babelthuap Island PW
ICAO: PTRO
IATA:
Category: Medium
Scheduled Services:

Elevation: 176 ft
TransAlt. 0 ft.

Airport Communications:
KOROR RDO:123.6

PTRO Zoom In..

If you have problems with the map follow the link
https://www.worldairports.se/pages/airport.php?
ICAO=PTRO

Runways:

(A) RW 09 length 7200 ft width 151 ft
---- / hdg 90

(B) RW 27 length 7200 ft width 151 ft
---- / hdg 270

Location; PTRO
Day. 25 / Time. 23.50 Zulu
* Altimeter: 29.85
* Temperature: 28° c. 82.4°f.
* Wind from: 070° Speed 10 kn with Gusts up to 18 kn.
Dewpoint: 25° c.
Visibility: 14 Statute Miles.
Clouds: Broken 1600 ft.
Clouds: Broken 12000 ft.
Clouds: Broken 3000 ft.

PTRO 252350Z 07010G18KT 14SM BKN016 BKN120 BKN300 28/25 A2985


Wind From 070°
Speed 10 kn.

 
 
jpsmedia worldairports.se 2020   terms of use